sensor_id;sensor_type;location;lat;lon;timestamp;P1;durP1;ratioP1;P2;durP2;ratioP2
15425;SDS011;7812;50.072;7.036;2023-05-10T00:01:58;1.50;;;0.90;;
15425;SDS011;7812;50.072;7.036;2023-05-10T00:04:23;0.90;;;0.80;;
15425;SDS011;7812;50.072;7.036;2023-05-10T00:06:52;2.60;;;1.20;;
15425;SDS011;7812;50.072;7.036;2023-05-10T00:09:18;1.53;;;1.00;;
15425;SDS011;7812;50.072;7.036;2023-05-10T00:11:44;3.40;;;0.83;;
15425;SDS011;7812;50.072;7.036;2023-05-10T00:14:09;0.80;;;0.80;;
15425;SDS011;7812;50.072;7.036;2023-05-10T00:16:36;3.70;;;1.00;;
15425;SDS011;7812;50.072;7.036;2023-05-10T00:19:01;1.10;;;0.97;;
15425;SDS011;7812;50.072;7.036;2023-05-10T00:21:27;3.20;;;1.07;;
15425;SDS011;7812;50.072;7.036;2023-05-10T00:23:54;1.43;;;0.93;;
15425;SDS011;7812;50.072;7.036;2023-05-10T00:26:21;3.20;;;0.90;;
15425;SDS011;7812;50.072;7.036;2023-05-10T00:28:46;1.67;;;1.20;;
15425;SDS011;7812;50.072;7.036;2023-05-10T00:31:12;0.93;;;0.83;;
15425;SDS011;7812;50.072;7.036;2023-05-10T00:33:39;1.47;;;0.83;;
15425;SDS011;7812;50.072;7.036;2023-05-10T00:36:05;1.87;;;0.90;;
15425;SDS011;7812;50.072;7.036;2023-05-10T00:38:32;2.57;;;1.20;;
15425;SDS011;7812;50.072;7.036;2023-05-10T00:40:58;1.70;;;0.90;;
15425;SDS011;7812;50.072;7.036;2023-05-10T00:43:23;1.83;;;1.20;;
15425;SDS011;7812;50.072;7.036;2023-05-10T00:45:49;2.43;;;0.80;;
15425;SDS011;7812;50.072;7.036;2023-05-10T00:48:15;2.00;;;1.10;;
15425;SDS011;7812;50.072;7.036;2023-05-10T00:50:41;2.50;;;1.10;;
15425;SDS011;7812;50.072;7.036;2023-05-10T00:53:07;2.77;;;1.30;;
15425;SDS011;7812;50.072;7.036;2023-05-10T00:55:33;2.20;;;1.30;;
15425;SDS011;7812;50.072;7.036;2023-05-10T00:57:59;3.87;;;1.10;;
15425;SDS011;7812;50.072;7.036;2023-05-10T01:00:26;2.50;;;1.20;;
15425;SDS011;7812;50.072;7.036;2023-05-10T01:02:53;2.80;;;1.20;;
15425;SDS011;7812;50.072;7.036;2023-05-10T01:05:18;2.47;;;1.07;;
15425;SDS011;7812;50.072;7.036;2023-05-10T01:07:45;2.00;;;1.10;;
15425;SDS011;7812;50.072;7.036;2023-05-10T01:10:11;1.47;;;1.20;;
15425;SDS011;7812;50.072;7.036;2023-05-10T01:12:38;1.80;;;1.30;;
15425;SDS011;7812;50.072;7.036;2023-05-10T01:15:06;0.90;;;0.90;;
15425;SDS011;7812;50.072;7.036;2023-05-10T01:17:38;2.40;;;1.27;;
15425;SDS011;7812;50.072;7.036;2023-05-10T01:20:05;3.03;;;1.50;;
15425;SDS011;7812;50.072;7.036;2023-05-10T01:28:32;1.40;;;1.30;;
15425;SDS011;7812;50.072;7.036;2023-05-10T01:31:18;1.43;;;1.30;;
15425;SDS011;7812;50.072;7.036;2023-05-10T01:34:01;2.37;;;1.80;;
15425;SDS011;7812;50.072;7.036;2023-05-10T01:50:00;2.73;;;2.30;;
15425;SDS011;7812;50.072;7.036;2023-05-10T01:52:33;2.00;;;1.90;;
15425;SDS011;7812;50.072;7.036;2023-05-10T01:55:07;2.80;;;1.90;;
15425;SDS011;7812;50.072;7.036;2023-05-10T01:57:36;2.83;;;2.10;;
15425;SDS011;7812;50.072;7.036;2023-05-10T02:00:04;2.50;;;2.30;;
15425;SDS011;7812;50.072;7.036;2023-05-10T02:02:33;3.93;;;2.30;;
15425;SDS011;7812;50.072;7.036;2023-05-10T02:05:07;3.43;;;1.93;;
15425;SDS011;7812;50.072;7.036;2023-05-10T02:07:35;2.60;;;2.23;;
15425;SDS011;7812;50.072;7.036;2023-05-10T02:10:02;2.17;;;2.03;;
15425;SDS011;7812;50.072;7.036;2023-05-10T02:12:36;3.00;;;2.10;;
15425;SDS011;7812;50.072;7.036;2023-05-10T02:15:06;2.70;;;2.00;;
15425;SDS011;7812;50.072;7.036;2023-05-10T02:17:34;3.20;;;2.00;;
15425;SDS011;7812;50.072;7.036;2023-05-10T02:20:02;3.67;;;2.60;;
15425;SDS011;7812;50.072;7.036;2023-05-10T02:22:29;6.23;;;2.10;;
15425;SDS011;7812;50.072;7.036;2023-05-10T02:24:57;2.90;;;2.53;;
15425;SDS011;7812;50.072;7.036;2023-05-10T02:27:24;2.97;;;2.10;;
15425;SDS011;7812;50.072;7.036;2023-05-10T02:29:52;2.67;;;2.40;;
15425;SDS011;7812;50.072;7.036;2023-05-10T02:32:19;2.97;;;2.47;;
15425;SDS011;7812;50.072;7.036;2023-05-10T02:34:47;2.40;;;2.20;;
15425;SDS011;7812;50.072;7.036;2023-05-10T02:37:18;4.90;;;2.43;;
15425;SDS011;7812;50.072;7.036;2023-05-10T02:39:48;3.20;;;2.00;;
15425;SDS011;7812;50.072;7.036;2023-05-10T02:42:16;3.60;;;2.00;;
15425;SDS011;7812;50.072;7.036;2023-05-10T02:44:48;3.07;;;2.10;;
15425;SDS011;7812;50.072;7.036;2023-05-10T02:47:15;3.23;;;2.27;;
15425;SDS011;7812;50.072;7.036;2023-05-10T02:49:42;2.70;;;2.30;;
15425;SDS011;7812;50.072;7.036;2023-05-10T02:52:08;3.33;;;2.30;;
15425;SDS011;7812;50.072;7.036;2023-05-10T02:54:39;2.70;;;2.37;;
15425;SDS011;7812;50.072;7.036;2023-05-10T02:57:08;2.80;;;2.50;;
15425;SDS011;7812;50.072;7.036;2023-05-10T02:59:40;5.17;;;2.53;;
15425;SDS011;7812;50.072;7.036;2023-05-10T03:02:07;4.63;;;2.90;;
15425;SDS011;7812;50.072;7.036;2023-05-10T03:04:34;5.57;;;2.80;;
15425;SDS011;7812;50.072;7.036;2023-05-10T03:07:00;3.90;;;2.63;;
15425;SDS011;7812;50.072;7.036;2023-05-10T03:09:26;2.97;;;2.67;;
15425;SDS011;7812;50.072;7.036;2023-05-10T03:12:04;3.20;;;2.80;;
15425;SDS011;7812;50.072;7.036;2023-05-10T03:17:11;4.10;;;2.80;;
15425;SDS011;7812;50.072;7.036;2023-05-10T03:20:16;5.37;;;3.00;;
15425;SDS011;7812;50.072;7.036;2023-05-10T03:22:39;4.53;;;2.70;;
15425;SDS011;7812;50.072;7.036;2023-05-10T03:25:10;3.70;;;3.00;;
15425;SDS011;7812;50.072;7.036;2023-05-10T03:27:36;4.03;;;3.10;;
15425;SDS011;7812;50.072;7.036;2023-05-10T03:30:10;5.00;;;3.40;;
15425;SDS011;7812;50.072;7.036;2023-05-10T03:32:37;5.30;;;2.93;;
15425;SDS011;7812;50.072;7.036;2023-05-10T03:35:10;4.63;;;3.10;;
15425;SDS011;7812;50.072;7.036;2023-05-10T03:37:37;4.60;;;3.37;;
15425;SDS011;7812;50.072;7.036;2023-05-10T03:40:03;3.87;;;2.90;;
15425;SDS011;7812;50.072;7.036;2023-05-10T03:42:29;7.57;;;3.87;;
15425;SDS011;7812;50.072;7.036;2023-05-10T03:44:55;5.93;;;3.13;;
15425;SDS011;7812;50.072;7.036;2023-05-10T03:47:20;3.73;;;2.77;;
15425;SDS011;7812;50.072;7.036;2023-05-10T03:49:46;4.77;;;3.70;;
15425;SDS011;7812;50.072;7.036;2023-05-10T03:52:11;4.50;;;3.33;;
15425;SDS011;7812;50.072;7.036;2023-05-10T03:54:37;3.80;;;3.40;;
15425;SDS011;7812;50.072;7.036;2023-05-10T03:57:03;3.57;;;2.80;;
15425;SDS011;7812;50.072;7.036;2023-05-10T03:59:29;7.00;;;3.13;;
15425;SDS011;7812;50.072;7.036;2023-05-10T04:01:55;3.23;;;2.77;;
15425;SDS011;7812;50.072;7.036;2023-05-10T04:04:22;4.50;;;3.10;;
15425;SDS011;7812;50.072;7.036;2023-05-10T04:06:48;7.03;;;3.07;;
15425;SDS011;7812;50.072;7.036;2023-05-10T04:09:13;19.93;;;17.53;;
15425;SDS011;7812;50.072;7.036;2023-05-10T04:11:39;10.20;;;7.77;;
15425;SDS011;7812;50.072;7.036;2023-05-10T04:14:05;8.53;;;6.53;;
15425;SDS011;7812;50.072;7.036;2023-05-10T04:16:31;5.63;;;3.40;;
15425;SDS011;7812;50.072;7.036;2023-05-10T04:18:56;3.97;;;3.03;;
15425;SDS011;7812;50.072;7.036;2023-05-10T04:21:22;4.63;;;2.97;;
15425;SDS011;7812;50.072;7.036;2023-05-10T04:23:48;8.83;;;3.73;;
15425;SDS011;7812;50.072;7.036;2023-05-10T04:26:13;4.87;;;2.60;;
15425;SDS011;7812;50.072;7.036;2023-05-10T04:28:39;7.03;;;3.27;;
15425;SDS011;7812;50.072;7.036;2023-05-10T04:31:05;4.17;;;2.87;;
15425;SDS011;7812;50.072;7.036;2023-05-10T04:33:33;4.30;;;3.10;;
15425;SDS011;7812;50.072;7.036;2023-05-10T04:35:59;4.07;;;3.13;;
15425;SDS011;7812;50.072;7.036;2023-05-10T04:38:25;5.13;;;3.20;;
15425;SDS011;7812;50.072;7.036;2023-05-10T04:40:51;5.60;;;2.87;;
15425;SDS011;7812;50.072;7.036;2023-05-10T04:43:17;6.83;;;2.63;;
15425;SDS011;7812;50.072;7.036;2023-05-10T04:45:44;3.23;;;2.93;;
15425;SDS011;7812;50.072;7.036;2023-05-10T04:48:09;2.97;;;2.40;;
15425;SDS011;7812;50.072;7.036;2023-05-10T04:50:35;10.47;;;3.30;;
15425;SDS011;7812;50.072;7.036;2023-05-10T04:53:01;3.53;;;3.20;;
15425;SDS011;7812;50.072;7.036;2023-05-10T04:55:27;2.80;;;2.50;;
15425;SDS011;7812;50.072;7.036;2023-05-10T04:57:52;3.30;;;2.47;;
15425;SDS011;7812;50.072;7.036;2023-05-10T05:00:21;4.50;;;2.83;;
15425;SDS011;7812;50.072;7.036;2023-05-10T05:02:47;2.83;;;2.47;;
15425;SDS011;7812;50.072;7.036;2023-05-10T05:05:13;3.90;;;2.77;;
15425;SDS011;7812;50.072;7.036;2023-05-10T05:07:38;4.67;;;3.30;;
15425;SDS011;7812;50.072;7.036;2023-05-10T05:10:05;4.50;;;2.97;;
15425;SDS011;7812;50.072;7.036;2023-05-10T05:12:32;4.00;;;3.00;;
15425;SDS011;7812;50.072;7.036;2023-05-10T05:14:57;4.30;;;3.00;;
15425;SDS011;7812;50.072;7.036;2023-05-10T05:17:23;6.50;;;3.40;;
15425;SDS011;7812;50.072;7.036;2023-05-10T05:19:49;4.93;;;3.30;;
15425;SDS011;7812;50.072;7.036;2023-05-10T05:22:14;7.80;;;3.27;;
15425;SDS011;7812;50.072;7.036;2023-05-10T05:24:41;9.23;;;3.37;;
15425;SDS011;7812;50.072;7.036;2023-05-10T05:27:06;4.20;;;3.13;;
15425;SDS011;7812;50.072;7.036;2023-05-10T05:29:32;3.10;;;2.80;;
15425;SDS011;7812;50.072;7.036;2023-05-10T05:31:58;6.23;;;3.13;;
15425;SDS011;7812;50.072;7.036;2023-05-10T05:34:24;2.70;;;2.50;;
15425;SDS011;7812;50.072;7.036;2023-05-10T05:36:50;3.17;;;2.10;;
15425;SDS011;7812;50.072;7.036;2023-05-10T05:39:16;3.97;;;2.53;;
15425;SDS011;7812;50.072;7.036;2023-05-10T05:41:41;5.60;;;3.00;;
15425;SDS011;7812;50.072;7.036;2023-05-10T05:44:07;2.77;;;2.43;;
15425;SDS011;7812;50.072;7.036;2023-05-10T05:46:33;4.40;;;2.60;;
15425;SDS011;7812;50.072;7.036;2023-05-10T05:48:58;3.80;;;2.47;;
15425;SDS011;7812;50.072;7.036;2023-05-10T05:51:24;3.70;;;2.40;;
15425;SDS011;7812;50.072;7.036;2023-05-10T05:53:50;3.70;;;2.37;;
15425;SDS011;7812;50.072;7.036;2023-05-10T05:56:15;5.27;;;2.43;;
15425;SDS011;7812;50.072;7.036;2023-05-10T05:58:42;5.33;;;2.77;;
15425;SDS011;7812;50.072;7.036;2023-05-10T06:01:09;4.43;;;2.93;;
15425;SDS011;7812;50.072;7.036;2023-05-10T06:03:35;3.93;;;2.47;;
15425;SDS011;7812;50.072;7.036;2023-05-10T06:06:00;6.20;;;2.87;;
15425;SDS011;7812;50.072;7.036;2023-05-10T06:08:26;5.33;;;2.80;;
15425;SDS011;7812;50.072;7.036;2023-05-10T06:10:52;3.83;;;2.57;;
15425;SDS011;7812;50.072;7.036;2023-05-10T06:13:17;6.50;;;2.70;;
15425;SDS011;7812;50.072;7.036;2023-05-10T06:15:43;3.57;;;2.77;;
15425;SDS011;7812;50.072;7.036;2023-05-10T06:18:08;4.50;;;2.40;;
15425;SDS011;7812;50.072;7.036;2023-05-10T06:20:34;11.37;;;10.17;;
15425;SDS011;7812;50.072;7.036;2023-05-10T06:23:00;4.30;;;3.27;;
15425;SDS011;7812;50.072;7.036;2023-05-10T06:25:25;4.67;;;2.83;;
15425;SDS011;7812;50.072;7.036;2023-05-10T06:27:51;4.53;;;2.73;;
15425;SDS011;7812;50.072;7.036;2023-05-10T06:30:21;6.87;;;2.30;;
15425;SDS011;7812;50.072;7.036;2023-05-10T06:32:52;3.00;;;2.30;;
15425;SDS011;7812;50.072;7.036;2023-05-10T06:35:18;3.13;;;2.20;;
15425;SDS011;7812;50.072;7.036;2023-05-10T06:37:45;3.23;;;2.50;;
15425;SDS011;7812;50.072;7.036;2023-05-10T06:40:11;4.47;;;2.53;;
15425;SDS011;7812;50.072;7.036;2023-05-10T06:42:37;3.57;;;2.40;;
15425;SDS011;7812;50.072;7.036;2023-05-10T06:45:03;3.67;;;2.47;;
15425;SDS011;7812;50.072;7.036;2023-05-10T06:47:30;3.50;;;2.50;;
15425;SDS011;7812;50.072;7.036;2023-05-10T06:49:56;3.13;;;2.60;;
15425;SDS011;7812;50.072;7.036;2023-05-10T06:52:23;2.63;;;2.40;;
15425;SDS011;7812;50.072;7.036;2023-05-10T06:54:49;4.00;;;2.80;;
15425;SDS011;7812;50.072;7.036;2023-05-10T06:57:14;3.97;;;2.60;;
15425;SDS011;7812;50.072;7.036;2023-05-10T06:59:40;3.63;;;2.23;;
15425;SDS011;7812;50.072;7.036;2023-05-10T07:02:06;2.87;;;2.20;;
15425;SDS011;7812;50.072;7.036;2023-05-10T07:04:32;3.30;;;2.30;;
15425;SDS011;7812;50.072;7.036;2023-05-10T07:06:57;3.70;;;2.00;;
15425;SDS011;7812;50.072;7.036;2023-05-10T07:09:23;4.40;;;2.47;;
15425;SDS011;7812;50.072;7.036;2023-05-10T07:11:49;1.63;;;1.53;;
15425;SDS011;7812;50.072;7.036;2023-05-10T07:14:15;4.17;;;1.50;;
15425;SDS011;7812;50.072;7.036;2023-05-10T07:16:40;1.80;;;1.40;;
15425;SDS011;7812;50.072;7.036;2023-05-10T07:19:06;1.40;;;1.30;;
15425;SDS011;7812;50.072;7.036;2023-05-10T07:21:32;2.10;;;1.20;;
15425;SDS011;7812;50.072;7.036;2023-05-10T07:23:57;1.90;;;1.43;;
15425;SDS011;7812;50.072;7.036;2023-05-10T07:26:24;1.97;;;1.53;;
15425;SDS011;7812;50.072;7.036;2023-05-10T07:28:50;2.90;;;1.40;;
15425;SDS011;7812;50.072;7.036;2023-05-10T07:31:15;2.57;;;1.70;;
15425;SDS011;7812;50.072;7.036;2023-05-10T07:33:42;1.63;;;1.53;;
15425;SDS011;7812;50.072;7.036;2023-05-10T07:36:10;3.27;;;1.53;;
15425;SDS011;7812;50.072;7.036;2023-05-10T07:38:36;3.20;;;1.40;;
15425;SDS011;7812;50.072;7.036;2023-05-10T07:41:02;1.93;;;1.60;;
15425;SDS011;7812;50.072;7.036;2023-05-10T07:43:27;2.63;;;1.23;;
15425;SDS011;7812;50.072;7.036;2023-05-10T07:45:53;1.40;;;1.30;;
15425;SDS011;7812;50.072;7.036;2023-05-10T07:48:18;2.60;;;1.77;;
15425;SDS011;7812;50.072;7.036;2023-05-10T07:50:44;1.90;;;1.20;;
15425;SDS011;7812;50.072;7.036;2023-05-10T07:53:10;1.57;;;1.10;;
15425;SDS011;7812;50.072;7.036;2023-05-10T07:55:35;1.53;;;1.00;;
15425;SDS011;7812;50.072;7.036;2023-05-10T07:58:01;1.13;;;0.90;;
15425;SDS011;7812;50.072;7.036;2023-05-10T08:00:27;3.13;;;0.90;;
15425;SDS011;7812;50.072;7.036;2023-05-10T08:02:53;1.10;;;0.80;;
15425;SDS011;7812;50.072;7.036;2023-05-10T08:05:20;1.67;;;0.80;;
15425;SDS011;7812;50.072;7.036;2023-05-10T08:07:45;1.83;;;0.93;;
15425;SDS011;7812;50.072;7.036;2023-05-10T08:10:11;1.00;;;0.87;;
15425;SDS011;7812;50.072;7.036;2023-05-10T08:12:37;2.17;;;0.80;;
15425;SDS011;7812;50.072;7.036;2023-05-10T08:15:03;0.93;;;0.80;;
15425;SDS011;7812;50.072;7.036;2023-05-10T08:17:29;0.77;;;0.70;;
15425;SDS011;7812;50.072;7.036;2023-05-10T08:19:55;3.40;;;0.77;;
15425;SDS011;7812;50.072;7.036;2023-05-10T08:22:21;0.90;;;0.70;;
15425;SDS011;7812;50.072;7.036;2023-05-10T08:24:48;2.13;;;0.90;;
15425;SDS011;7812;50.072;7.036;2023-05-10T08:27:14;1.00;;;0.90;;
15425;SDS011;7812;50.072;7.036;2023-05-10T08:29:40;0.90;;;0.80;;
15425;SDS011;7812;50.072;7.036;2023-05-10T08:32:05;3.10;;;1.00;;
15425;SDS011;7812;50.072;7.036;2023-05-10T08:34:31;1.57;;;0.90;;
15425;SDS011;7812;50.072;7.036;2023-05-10T08:36:57;1.60;;;0.80;;
15425;SDS011;7812;50.072;7.036;2023-05-10T08:39:22;1.13;;;0.70;;
15425;SDS011;7812;50.072;7.036;2023-05-10T08:41:48;0.90;;;0.70;;
15425;SDS011;7812;50.072;7.036;2023-05-10T08:44:17;0.57;;;0.57;;
15425;SDS011;7812;50.072;7.036;2023-05-10T08:46:45;0.97;;;0.80;;
15425;SDS011;7812;50.072;7.036;2023-05-10T08:49:18;0.97;;;0.60;;
15425;SDS011;7812;50.072;7.036;2023-05-10T08:51:50;1.17;;;0.63;;
15425;SDS011;7812;50.072;7.036;2023-05-10T08:54:19;1.47;;;0.60;;
15425;SDS011;7812;50.072;7.036;2023-05-10T08:56:47;2.73;;;0.70;;
15425;SDS011;7812;50.072;7.036;2023-05-10T08:59:13;0.93;;;0.70;;
15425;SDS011;7812;50.072;7.036;2023-05-10T09:01:39;0.87;;;0.63;;
15425;SDS011;7812;50.072;7.036;2023-05-10T09:04:07;1.53;;;0.80;;
15425;SDS011;7812;50.072;7.036;2023-05-10T09:06:33;0.83;;;0.60;;
15425;SDS011;7812;50.072;7.036;2023-05-10T09:08:59;0.80;;;0.80;;
15425;SDS011;7812;50.072;7.036;2023-05-10T09:11:25;0.60;;;0.60;;
15425;SDS011;7812;50.072;7.036;2023-05-10T09:13:53;1.53;;;0.50;;
15425;SDS011;7812;50.072;7.036;2023-05-10T09:16:20;0.67;;;0.60;;
15425;SDS011;7812;50.072;7.036;2023-05-10T09:18:46;2.40;;;0.73;;
15425;SDS011;7812;50.072;7.036;2023-05-10T09:21:12;0.93;;;0.50;;
15425;SDS011;7812;50.072;7.036;2023-05-10T09:23:42;0.97;;;0.70;;
15425;SDS011;7812;50.072;7.036;2023-05-10T09:26:08;1.03;;;0.60;;
15425;SDS011;7812;50.072;7.036;2023-05-10T09:28:34;0.90;;;0.60;;
15425;SDS011;7812;50.072;7.036;2023-05-10T09:31:18;0.60;;;0.50;;
15425;SDS011;7812;50.072;7.036;2023-05-10T09:33:45;1.60;;;0.50;;
15425;SDS011;7812;50.072;7.036;2023-05-10T09:36:11;1.33;;;0.50;;
15425;SDS011;7812;50.072;7.036;2023-05-10T09:38:50;1.30;;;0.57;;
15425;SDS011;7812;50.072;7.036;2023-05-10T09:41:23;0.70;;;0.50;;
15425;SDS011;7812;50.072;7.036;2023-05-10T09:43:50;1.10;;;0.50;;
15425;SDS011;7812;50.072;7.036;2023-05-10T09:46:21;1.00;;;0.70;;
15425;SDS011;7812;50.072;7.036;2023-05-10T09:48:47;1.23;;;0.60;;
15425;SDS011;7812;50.072;7.036;2023-05-10T09:51:22;0.60;;;0.50;;
15425;SDS011;7812;50.072;7.036;2023-05-10T09:56:38;1.90;;;0.57;;
15425;SDS011;7812;50.072;7.036;2023-05-10T09:59:05;1.37;;;0.80;;
15425;SDS011;7812;50.072;7.036;2023-05-10T10:01:32;2.00;;;0.90;;
15425;SDS011;7812;50.072;7.036;2023-05-10T10:03:59;1.00;;;0.60;;
15425;SDS011;7812;50.072;7.036;2023-05-10T10:06:34;1.33;;;0.63;;
15425;SDS011;7812;50.072;7.036;2023-05-10T10:09:01;1.03;;;0.60;;
15425;SDS011;7812;50.072;7.036;2023-05-10T10:11:27;1.67;;;0.70;;
15425;SDS011;7812;50.072;7.036;2023-05-10T10:13:53;2.33;;;0.83;;
15425;SDS011;7812;50.072;7.036;2023-05-10T10:16:20;0.70;;;0.70;;
15425;SDS011;7812;50.072;7.036;2023-05-10T10:18:46;3.37;;;0.90;;
15425;SDS011;7812;50.072;7.036;2023-05-10T10:21:13;1.10;;;0.80;;
15425;SDS011;7812;50.072;7.036;2023-05-10T10:23:40;1.67;;;0.87;;
15425;SDS011;7812;50.072;7.036;2023-05-10T10:26:06;0.80;;;0.80;;
15425;SDS011;7812;50.072;7.036;2023-05-10T10:34:08;1.40;;;1.10;;
15425;SDS011;7812;50.072;7.036;2023-05-10T10:36:42;1.30;;;0.73;;
15425;SDS011;7812;50.072;7.036;2023-05-10T10:39:10;1.17;;;1.07;;
15425;SDS011;7812;50.072;7.036;2023-05-10T10:41:40;1.20;;;0.83;;
15425;SDS011;7812;50.072;7.036;2023-05-10T10:44:35;1.33;;;0.90;;
15425;SDS011;7812;50.072;7.036;2023-05-10T10:47:06;1.10;;;1.00;;
15425;SDS011;7812;50.072;7.036;2023-05-10T10:52:33;0.63;;;0.63;;
15425;SDS011;7812;50.072;7.036;2023-05-10T10:55:09;4.43;;;0.80;;
15425;SDS011;7812;50.072;7.036;2023-05-10T11:00:18;0.70;;;0.70;;
15425;SDS011;7812;50.072;7.036;2023-05-10T11:05:23;1.03;;;0.77;;
15425;SDS011;7812;50.072;7.036;2023-05-10T11:07:59;1.53;;;0.67;;
15425;SDS011;7812;50.072;7.036;2023-05-10T11:10:26;2.20;;;0.80;;
15425;SDS011;7812;50.072;7.036;2023-05-10T11:15:30;0.93;;;0.70;;
15425;SDS011;7812;50.072;7.036;2023-05-10T11:18:19;0.70;;;0.70;;
15425;SDS011;7812;50.072;7.036;2023-05-10T11:21:01;1.33;;;0.90;;
15425;SDS011;7812;50.072;7.036;2023-05-10T11:26:08;0.90;;;0.90;;
15425;SDS011;7812;50.072;7.036;2023-05-10T11:28:34;1.27;;;0.70;;
15425;SDS011;7812;50.072;7.036;2023-05-10T11:31:06;2.10;;;0.93;;
15425;SDS011;7812;50.072;7.036;2023-05-10T11:33:42;0.83;;;0.70;;
15425;SDS011;7812;50.072;7.036;2023-05-10T11:36:13;0.80;;;0.80;;
15425;SDS011;7812;50.072;7.036;2023-05-10T11:38:40;0.90;;;0.83;;
15425;SDS011;7812;50.072;7.036;2023-05-10T11:41:08;0.97;;;0.87;;
15425;SDS011;7812;50.072;7.036;2023-05-10T11:43:35;0.90;;;0.80;;
15425;SDS011;7812;50.072;7.036;2023-05-10T11:46:03;1.13;;;0.80;;
15425;SDS011;7812;50.072;7.036;2023-05-10T11:48:35;0.93;;;0.90;;
15425;SDS011;7812;50.072;7.036;2023-05-10T11:51:02;2.30;;;0.67;;
15425;SDS011;7812;50.072;7.036;2023-05-10T11:53:31;1.73;;;0.77;;
15425;SDS011;7812;50.072;7.036;2023-05-10T11:56:09;0.70;;;0.70;;
15425;SDS011;7812;50.072;7.036;2023-05-10T11:58:36;0.60;;;0.60;;
15425;SDS011;7812;50.072;7.036;2023-05-10T12:01:04;1.47;;;0.90;;
15425;SDS011;7812;50.072;7.036;2023-05-10T12:03:34;0.97;;;0.87;;
15425;SDS011;7812;50.072;7.036;2023-05-10T12:06:01;3.10;;;0.73;;
15425;SDS011;7812;50.072;7.036;2023-05-10T12:08:28;1.73;;;0.93;;
15425;SDS011;7812;50.072;7.036;2023-05-10T12:11:08;1.33;;;0.80;;
15425;SDS011;7812;50.072;7.036;2023-05-10T12:13:38;3.30;;;0.80;;
15425;SDS011;7812;50.072;7.036;2023-05-10T12:16:13;1.50;;;0.70;;
15425;SDS011;7812;50.072;7.036;2023-05-10T12:18:40;1.17;;;1.07;;
15425;SDS011;7812;50.072;7.036;2023-05-10T12:21:07;0.60;;;0.60;;
15425;SDS011;7812;50.072;7.036;2023-05-10T12:23:36;0.80;;;0.80;;
15425;SDS011;7812;50.072;7.036;2023-05-10T12:26:02;1.67;;;0.77;;
15425;SDS011;7812;50.072;7.036;2023-05-10T12:28:29;2.20;;;0.80;;
15425;SDS011;7812;50.072;7.036;2023-05-10T12:30:57;1.13;;;1.00;;
15425;SDS011;7812;50.072;7.036;2023-05-10T12:33:24;0.80;;;0.80;;
15425;SDS011;7812;50.072;7.036;2023-05-10T12:35:51;0.80;;;0.73;;
15425;SDS011;7812;50.072;7.036;2023-05-10T12:41:14;2.77;;;1.00;;
15425;SDS011;7812;50.072;7.036;2023-05-10T12:43:41;2.30;;;0.83;;
15425;SDS011;7812;50.072;7.036;2023-05-10T12:46:12;0.80;;;0.80;;
15425;SDS011;7812;50.072;7.036;2023-05-10T12:48:39;0.70;;;0.70;;
15425;SDS011;7812;50.072;7.036;2023-05-10T12:51:06;1.47;;;0.83;;
15425;SDS011;7812;50.072;7.036;2023-05-10T12:53:38;1.93;;;0.90;;
15425;SDS011;7812;50.072;7.036;2023-05-10T12:56:04;1.13;;;0.77;;
15425;SDS011;7812;50.072;7.036;2023-05-10T12:58:31;2.70;;;1.10;;
15425;SDS011;7812;50.072;7.036;2023-05-10T13:00:57;2.20;;;1.20;;
15425;SDS011;7812;50.072;7.036;2023-05-10T13:03:27;1.93;;;1.10;;
15425;SDS011;7812;50.072;7.036;2023-05-10T13:05:52;2.07;;;1.10;;
15425;SDS011;7812;50.072;7.036;2023-05-10T13:08:19;1.77;;;1.10;;
15425;SDS011;7812;50.072;7.036;2023-05-10T13:10:45;2.10;;;1.27;;
15425;SDS011;7812;50.072;7.036;2023-05-10T13:13:11;2.30;;;1.10;;
15425;SDS011;7812;50.072;7.036;2023-05-10T13:15:37;3.63;;;1.37;;
15425;SDS011;7812;50.072;7.036;2023-05-10T13:18:03;1.77;;;1.30;;
15425;SDS011;7812;50.072;7.036;2023-05-10T13:20:28;1.83;;;1.23;;
15425;SDS011;7812;50.072;7.036;2023-05-10T13:22:54;3.03;;;1.40;;
15425;SDS011;7812;50.072;7.036;2023-05-10T13:25:20;1.20;;;1.07;;
15425;SDS011;7812;50.072;7.036;2023-05-10T13:27:46;1.80;;;1.30;;
15425;SDS011;7812;50.072;7.036;2023-05-10T13:30:12;3.03;;;1.70;;
15425;SDS011;7812;50.072;7.036;2023-05-10T13:32:37;1.73;;;1.07;;
15425;SDS011;7812;50.072;7.036;2023-05-10T13:35:04;2.93;;;1.40;;
15425;SDS011;7812;50.072;7.036;2023-05-10T13:37:31;1.97;;;1.40;;
15425;SDS011;7812;50.072;7.036;2023-05-10T13:40:00;3.37;;;1.20;;
15425;SDS011;7812;50.072;7.036;2023-05-10T13:42:26;2.87;;;1.30;;
15425;SDS011;7812;50.072;7.036;2023-05-10T13:44:52;2.50;;;1.20;;
15425;SDS011;7812;50.072;7.036;2023-05-10T13:47:17;2.70;;;1.30;;
15425;SDS011;7812;50.072;7.036;2023-05-10T13:49:43;1.53;;;0.90;;
15425;SDS011;7812;50.072;7.036;2023-05-10T13:52:09;1.37;;;1.00;;
15425;SDS011;7812;50.072;7.036;2023-05-10T13:54:38;0.90;;;0.90;;
15425;SDS011;7812;50.072;7.036;2023-05-10T13:57:04;2.07;;;1.27;;
15425;SDS011;7812;50.072;7.036;2023-05-10T13:59:31;3.20;;;0.90;;
15425;SDS011;7812;50.072;7.036;2023-05-10T14:01:57;2.10;;;0.90;;
15425;SDS011;7812;50.072;7.036;2023-05-10T14:04:29;3.03;;;0.90;;
15425;SDS011;7812;50.072;7.036;2023-05-10T14:06:55;2.47;;;1.10;;
15425;SDS011;7812;50.072;7.036;2023-05-10T14:09:21;2.87;;;1.07;;
15425;SDS011;7812;50.072;7.036;2023-05-10T14:11:47;1.90;;;1.10;;
15425;SDS011;7812;50.072;7.036;2023-05-10T14:14:12;3.17;;;1.10;;
15425;SDS011;7812;50.072;7.036;2023-05-10T14:16:41;1.37;;;1.00;;
15425;SDS011;7812;50.072;7.036;2023-05-10T14:19:08;1.53;;;1.00;;
15425;SDS011;7812;50.072;7.036;2023-05-10T14:21:34;3.30;;;1.70;;
15425;SDS011;7812;50.072;7.036;2023-05-10T14:24:00;3.87;;;1.50;;
15425;SDS011;7812;50.072;7.036;2023-05-10T14:26:25;1.43;;;0.93;;
15425;SDS011;7812;50.072;7.036;2023-05-10T14:28:52;1.97;;;1.00;;
15425;SDS011;7812;50.072;7.036;2023-05-10T14:31:18;2.80;;;0.90;;
15425;SDS011;7812;50.072;7.036;2023-05-10T14:33:45;1.20;;;1.00;;
15425;SDS011;7812;50.072;7.036;2023-05-10T14:36:11;2.47;;;1.00;;
15425;SDS011;7812;50.072;7.036;2023-05-10T14:38:38;1.90;;;1.00;;
15425;SDS011;7812;50.072;7.036;2023-05-10T14:41:04;1.57;;;0.90;;
15425;SDS011;7812;50.072;7.036;2023-05-10T14:43:30;3.67;;;1.23;;
15425;SDS011;7812;50.072;7.036;2023-05-10T14:45:56;2.23;;;0.90;;
15425;SDS011;7812;50.072;7.036;2023-05-10T14:48:22;1.37;;;0.90;;
15425;SDS011;7812;50.072;7.036;2023-05-10T14:50:47;2.90;;;0.80;;
15425;SDS011;7812;50.072;7.036;2023-05-10T14:53:14;1.00;;;0.80;;
15425;SDS011;7812;50.072;7.036;2023-05-10T14:55:40;1.37;;;1.00;;
15425;SDS011;7812;50.072;7.036;2023-05-10T14:58:05;1.63;;;1.10;;
15425;SDS011;7812;50.072;7.036;2023-05-10T15:00:32;1.33;;;1.00;;
15425;SDS011;7812;50.072;7.036;2023-05-10T15:02:58;1.23;;;0.83;;
15425;SDS011;7812;50.072;7.036;2023-05-10T15:05:24;1.70;;;0.90;;
15425;SDS011;7812;50.072;7.036;2023-05-10T15:07:50;1.87;;;1.10;;
15425;SDS011;7812;50.072;7.036;2023-05-10T15:10:15;1.10;;;0.93;;
15425;SDS011;7812;50.072;7.036;2023-05-10T15:12:41;1.57;;;1.20;;
15425;SDS011;7812;50.072;7.036;2023-05-10T15:15:07;1.67;;;1.07;;
15425;SDS011;7812;50.072;7.036;2023-05-10T15:17:33;1.30;;;1.00;;
15425;SDS011;7812;50.072;7.036;2023-05-10T15:19:59;1.27;;;1.07;;
15425;SDS011;7812;50.072;7.036;2023-05-10T15:22:25;2.23;;;0.93;;
15425;SDS011;7812;50.072;7.036;2023-05-10T15:24:53;2.00;;;1.10;;
15425;SDS011;7812;50.072;7.036;2023-05-10T15:27:19;3.57;;;1.50;;
15425;SDS011;7812;50.072;7.036;2023-05-10T15:29:44;1.90;;;1.13;;
15425;SDS011;7812;50.072;7.036;2023-05-10T15:32:10;2.03;;;1.00;;
15425;SDS011;7812;50.072;7.036;2023-05-10T15:34:36;2.13;;;1.20;;
15425;SDS011;7812;50.072;7.036;2023-05-10T15:37:01;1.40;;;0.93;;
15425;SDS011;7812;50.072;7.036;2023-05-10T15:39:27;2.60;;;1.00;;
15425;SDS011;7812;50.072;7.036;2023-05-10T15:41:53;2.47;;;1.10;;
15425;SDS011;7812;50.072;7.036;2023-05-10T15:44:18;1.13;;;0.90;;
15425;SDS011;7812;50.072;7.036;2023-05-10T15:46:44;2.07;;;1.10;;
15425;SDS011;7812;50.072;7.036;2023-05-10T15:49:10;1.43;;;1.10;;